Aviation Digital Data Service (ADDS)

Output produced by TAFs form (0232 UTC 24 November 2014)
found at http://aviationweather.gov/adds/tafs/
 
KTEX 240141Z 2402/2424 28010G20KT P6SM VCSH SCT045 BKN080 
     FM240300 24006KT P6SM VCSH SCT050 BKN080 
     FM240600 13004KT P6SM BKN080 
     FM241800 32010G17KT P6SM VCSH BKN030